KGLR/GLR METAR and TAF weather

Enter ICAO airport designator
Station Type Date Time Source
KGLR METAR 2019/04/19 00:18 UTC NOAA

KGLR 190018Z AUTO 29005KT 2 1/2SM BR OVC003 02/02 A2963 RMK AO2 T00220022 TSNO


Station Type Date Time Source
KGLR Decoded METAR 2019/04/19 00:18 UTC NOAA

GAYLORD REGIONAL AIRPORT, MI, United States (KGLR) 45-01N 84-41W 407M
Apr 18, 2019 - 08:18 PM EDT / 2019.04.19 0018 UTC
Wind: from the WNW (290 degrees) at 6 MPH (5 KT):0
Visibility: 2 1/2 mile(s):0
Sky conditions: overcast
Weather: mist
Temperature: 36.0 F (2.2 C)
Dew Point: 36.0 F (2.2 C)
Relative Humidity: 100%
Pressure (altimeter): 29.63 in. Hg (1003 hPa)
ob: KGLR 190018Z AUTO 29005KT 2 1/2SM BR OVC003 02/02 A2963 RMK AO2 T00220022 TSNO
cycle: 0

Station Type Date Time Source
KGLR TAF UTC NOAA

Error!

Example: see airport list